Weather observations for the past three days for
Spencer Municipal Airport
Imperial (Metric)
Date Time (cdt) Wind (mph) Vis. (mi.) Weather Sky Cond. Temperature (ºF) Relative Humidity Wind Chill (°F) Heat Index (°F) Pressure Precipitation (in)
Air Dwpt 6 hour altimeter (in) sea level (mb) 1 hr 3 hr 6 hr
Max. Min.
06 12:53 E 25 G 35 5.00 Thunderstorm Light Rain Fog/Mist and Breezy SCT035 BKN065 OVC085 68 66 77 66.9 93% 30.07 1017.7 0.53 1.29
06 11:53 E 29 G 44 1.00 Thunderstorm Heavy Rain Fog/Mist and Windy BKN017 BKN039 OVC049 66.9 64.9 93% 30.1 1018.6 0.76
06 10:53 E 14 10.00 Overcast OVC010 75.9 72 88% 76 30.05 1016.9
06 09:53 SE 10 10.00 Overcast OVC006 75 72 90% 74 30.04 1016.3
06 08:53 SE 13 10.00 Overcast OVC006 73 71.1 94% 30.05 1016.8
06 07:53 SE 12 10.00 Overcast OVC005 72 71.1 97% 30.04 1016.5
06 06:53 SE 8 10.00 Overcast OVC005 72 71.1 73.9 72 97% 30.03 1015.9
06 05:53 SE 10 10.00 Overcast OVC006 73 71.1 94% 30.02 1015.6
06 04:53 SE 9 10.00 Overcast OVC006 73 71.1 94% 30.03 1015.8
06 03:53 SE 9 10.00 Overcast OVC008 73 71.1 94% 30.02 1015.4
06 02:53 SE 8 10.00 Overcast OVC006 73 72 96% 30.01 1015.1
06 01:53 SE 12 10.00 Overcast OVC006 73.9 72 94% 30.01 1015.3
06 00:53 E 9 10.00 Mostly Cloudy BKN006 73.9 73 81 73.9 97% 30.02 1015.5
05 23:53 SE 8 10.00 Fair CLR 75 73 94% 73 30.02 1015.5
05 22:53 E 9 10.00 Fair CLR 75 73 94% 73 30.01 1015.5
05 21:53 E 6 10.00 Fair CLR 75.9 73.9 94% 75 30.01 1015.4
05 20:53 E 6 10.00 Fair CLR 75 73 94% 73 30 1015.1
05 19:53 E 7 10.00 Fair CLR 77 72 85% 78 29.98 1014.4
05 18:53 SE 9 10.00 Fair CLR 81 72 84.9 80.1 74% 85 29.99 1014.5
05 17:53 E 15 10.00 Fair CLR 82.9 70 65% 87 29.98 1014.2
05 16:53 SE 12 10.00 A Few Clouds FEW120 82 68 63% 85 29.97 1013.7
05 15:53 SE 14 10.00 Fair CLR 82.9 66.9 59% 86 29.96 1013.6
05 12:53 SE 6 10.00 NULL NULL 80.1 66.9 80.1 68 64% 82 29.97 1014.1 0.27
05 11:53 NE 10 10.00 NULL NULL 73.9 64.9 74% 29.97 1014.2
05 10:53 N 6 10.00 Mostly Cloudy FEW055 SCT100 BKN120 68 64.9 90% 30.05 1016.8 0.05
05 09:53 N 22 G 33 10.00 Thunderstorm in Vicinity Light Rain and Breezy BKN110 70 64 82% 30.06 1017.3 0.15 0.22
05 08:53 W 18 G 33 10.00 Thunderstorm Rain FEW002 BKN038 OVC048 69.1 66 90% 30.1 1018.5 0.07
05 07:53 N 6 8.00 Mostly Cloudy BKN002 73 72 96% 30.02 1015.5
05 06:53 NE 5 8.00 Partly Cloudy SCT002 72 72 73 71.1 100% 29.98 1014.1
05 05:53 NE 5 7.00 Overcast OVC002 72 72 100% 29.97 1013.7
05 04:53 NE 6 1.25 Fog/Mist OVC002 72 72 100% 29.95 1012.9
05 03:53 E 5 7.00 Fair CLR 72 72 100% 29.94 1012.6
05 02:53 E 3 7.00 Fair CLR 72 72 100% 29.95 1012.8
05 01:53 E 5 10.00 Fair CLR 72 71.1 97% 29.95 1013.1
05 00:53 E 5 10.00 Fair CLR 72 71.1 87.1 72 97% 29.96 1013.2
04 23:53 NE 6 10.00 Fair CLR 73 72 96% 29.95 1012.9
04 22:53 E 5 10.00 Fair CLR 73.9 72 94% 29.94 1012.9
04 21:53 NE 6 10.00 Fair CLR 75.9 73 91% 76 29.94 1012.8
04 20:53 Calm 10.00 Fair CLR 79 73.9 85% 83 29.92 1012.3
04 19:53 SE 7 10.00 Fair CLR 82.9 73.9 74% 89 29.91 1011.7
04 18:53 SE 7 10.00 Fair CLR 87.1 73.9 93.9 87.1 65% 95 29.91 1011.7
04 17:53 E 8 10.00 Fair CLR 91 73 56% 100 29.89 1011.1
04 16:53 E 12 10.00 Fair CLR 93 73 52% 102 29.88 1010.8
04 15:53 Vrbl 5 10.00 Fair CLR 93 72 50% 101 29.89 1011.0
04 14:53 E 9 10.00 Fair CLR 93 71.1 49% 100 29.89 1010.8
04 13:53 E 7 10.00 Fair CLR 91 72 54% 99 29.89 1010.9
04 12:53 Vrbl 6 10.00 Fair CLR 90 72 90 69.1 56% 97 29.9 1011.2
04 11:53 N 6 10.00 Fair CLR 88 71.1 57% 94 29.89 1011.1
04 10:53 Calm 10.00 Fair CLR 82.9 70 65% 87 29.89 1011.0
04 09:53 NW 3 10.00 Fair CLR 81 70 69% 84 29.88 1010.8
04 08:53 Calm 10.00 Fair CLR 77 70 79% 79 29.88 1010.8
04 07:53 Calm 10.00 Fair CLR 72 69.1 91% 29.87 1010.6
04 06:53 SE 3 10.00 Fair CLR 69.1 66.9 73.9 69.1 93% 29.86 1010.0
04 05:53 SE 3 10.00 Fair CLR 70 68 93% 29.85 1009.7
04 04:53 SE 7 10.00 Fair CLR 70 69.1 97% 29.84 1009.5
04 03:53 SE 3 10.00 A Few Clouds FEW100 72 69.1 91% 29.85 1009.5
04 02:53 SE 3 10.00 Partly Cloudy SCT090 73 70 90% 29.84 1009.3
04 01:53 E 3 10.00 Fair CLR 71.1 69.1 94% 29.84 1009.4
04 00:53 SE 6 10.00 Fair CLR 72 71.1 86 72 97% 29.84 1009.3
03 23:53 S 3 10.00 Fair CLR 73 72 96% 29.83 1009.1
03 22:53 S 5 10.00 Fair CLR 75.9 72 88% 76 29.83 1008.8
03 21:53 Calm 10.00 Fair CLR 78.1 73 85% 81 29.82 1008.8
03 20:53 S 5 10.00 Fair CLR 80.1 73.9 82% 85 29.81 1008.4
03 19:53 S 7 10.00 Fair CLR 82.9 73.9 74% 89 29.8 1008.0
03 18:53 S 10 10.00 Fair CLR 86 73 90 84 65% 93 29.8 1008.0
03 17:53 S 16 G 26 10.00 Fair CLR 88 72 59% 95 29.8 1007.9
03 16:53 S 18 G 28 10.00 Fair CLR 89.1 71.1 55% 95 29.78 1007.2
03 15:53 S 16 G 28 10.00 Fair CLR 87.1 71.1 59% 93 29.77 1006.9
03 14:53 S 17 G 28 10.00 Fair CLR 86 71.1 61% 92 29.8 1007.9
03 13:53 S 16 G 30 10.00 Fair CLR 86 69.1 57% 90 29.8 1007.9
Date Time (cdt) Wind (mph) Vis. (mi.) Weather Sky Cond. Air Dwpt Max. Min. Relative Humidity Wind Chill (°F) Heat Index (°F) altimeter (in) sea level (mb) 1 hr 3 hr 6 hr
6 hour
Temperature (ºF) Pressure Precipitation (in)